createdAt,value
2022-07-30T00:00:39.745Z,16.70
2022-07-30T00:03:06.586Z,16.50
2022-07-30T00:05:33.496Z,16.50
2022-07-30T00:08:00.356Z,17.00
2022-07-30T00:10:27.807Z,16.40
2022-07-30T00:12:54.682Z,16.40
2022-07-30T00:15:21.618Z,16.80
2022-07-30T00:17:48.502Z,17.20
2022-07-30T00:20:16.864Z,16.30
2022-07-30T00:22:45.332Z,16.60
2022-07-30T00:25:12.227Z,16.30
2022-07-30T00:27:39.731Z,16.30
2022-07-30T00:30:07.198Z,17.10
2022-07-30T00:32:34.037Z,16.20
2022-07-30T00:35:02.230Z,16.80
2022-07-30T00:37:29.123Z,17.50
2022-07-30T00:39:56.037Z,16.30
2022-07-30T00:42:25.794Z,16.20
2022-07-30T00:44:53.142Z,16.10
2022-07-30T00:47:20.383Z,16.10
2022-07-30T00:49:47.381Z,16.10
2022-07-30T00:52:14.297Z,16.40
2022-07-30T00:54:41.233Z,16.00
2022-07-30T00:57:08.126Z,16.50
2022-07-30T00:59:36.393Z,15.90
2022-07-30T01:02:03.633Z,15.80
2022-07-30T01:04:31.169Z,15.80
2022-07-30T01:06:58.419Z,15.80
2022-07-30T01:09:25.443Z,15.30
2022-07-30T01:11:52.342Z,16.70
2022-07-30T01:14:19.205Z,15.70
2022-07-30T01:16:46.606Z,15.60
2022-07-30T01:19:43.816Z,16.40
2022-07-30T01:22:30.511Z,15.60
2022-07-30T01:25:17.886Z,15.50
2022-07-30T01:27:51.009Z,16.60
2022-07-30T01:30:21.872Z,15.40
2022-07-30T01:32:48.847Z,15.40
2022-07-30T01:35:16.389Z,15.30
2022-07-30T01:37:43.286Z,17.20
2022-07-30T01:40:10.935Z,16.00
2022-07-30T01:42:38.176Z,15.30
2022-07-30T01:45:06.852Z,15.30
2022-07-30T01:47:33.753Z,15.20
2022-07-30T01:50:00.704Z,15.20
2022-07-30T01:52:27.943Z,17.60
2022-07-30T01:54:54.922Z,17.40
2022-07-30T01:57:22.551Z,16.50
2022-07-30T01:59:52.008Z,16.40
2022-07-30T02:02:19.832Z,15.70
2022-07-30T02:04:47.097Z,17.30
2022-07-30T02:07:24.873Z,16.50
2022-07-30T02:10:07.574Z,15.10
2022-07-30T02:12:43.323Z,15.10
2022-07-30T02:15:29.420Z,16.60
2022-07-30T02:18:00.771Z,15.20
2022-07-30T02:20:29.564Z,16.00
2022-07-30T02:23:07.896Z,16.80
2022-07-30T02:25:35.786Z,15.30
2022-07-30T02:28:06.309Z,15.40
2022-07-30T02:30:34.985Z,15.00
2022-07-30T02:33:05.849Z,16.60
2022-07-30T02:35:32.896Z,15.90
2022-07-30T02:38:00.763Z,15.10
2022-07-30T02:40:29.902Z,16.10
2022-07-30T02:42:56.907Z,15.10
2022-07-30T02:45:26.441Z,15.00
2022-07-30T02:48:02.580Z,16.20
2022-07-30T02:50:29.597Z,16.60
2022-07-30T02:52:58.276Z,14.80
2022-07-30T02:55:25.364Z,16.40
2022-07-30T02:57:52.623Z,14.80
2022-07-30T03:00:20.159Z,15.50
2022-07-30T03:02:47.147Z,14.80
2022-07-30T03:05:14.347Z,16.50
2022-07-30T03:07:41.365Z,14.80
2022-07-30T03:10:08.695Z,14.90
2022-07-30T03:12:36.000Z,14.70
2022-07-30T03:15:02.887Z,16.90
2022-07-30T03:17:38.800Z,16.50
2022-07-30T03:20:08.625Z,14.70
2022-07-30T03:22:36.338Z,14.70
2022-07-30T03:25:03.435Z,14.80
2022-07-30T03:27:30.981Z,14.70
2022-07-30T03:29:58.323Z,17.10
2022-07-30T03:32:26.243Z,14.70
2022-07-30T03:34:54.558Z,15.40
2022-07-30T03:37:24.411Z,14.70
2022-07-30T03:39:54.368Z,14.60
2022-07-30T03:42:21.876Z,15.10
2022-07-30T03:44:49.096Z,14.70
2022-07-30T03:47:16.107Z,14.60
2022-07-30T03:49:47.287Z,14.60
2022-07-30T03:52:14.145Z,14.60
2022-07-30T03:54:41.105Z,16.00
2022-07-30T03:57:26.504Z,14.30
2022-07-30T03:59:53.413Z,14.70
2022-07-30T04:02:21.563Z,15.00
2022-07-30T04:05:17.444Z,15.30
2022-07-30T04:07:46.277Z,16.10
2022-07-30T04:10:17.175Z,14.50
2022-07-30T04:13:07.876Z,14.40
2022-07-30T04:16:37.389Z,15.00
2022-07-30T04:18:30.357Z,14.50
2022-07-30T04:20:57.273Z,14.40
2022-07-30T04:23:24.183Z,14.40
2022-07-30T04:25:51.773Z,15.40
2022-07-30T04:28:19.526Z,14.40
2022-07-30T04:30:46.491Z,16.10
2022-07-30T04:33:14.284Z,16.40
2022-07-30T04:35:50.098Z,14.90
2022-07-30T04:38:24.499Z,14.50
2022-07-30T04:40:51.967Z,16.50
2022-07-30T04:43:19.102Z,14.40
2022-07-30T04:45:46.173Z,15.60
2022-07-30T04:48:13.190Z,14.60
2022-07-30T04:50:42.446Z,14.50
2022-07-30T04:53:11.883Z,14.80
2022-07-30T04:55:45.593Z,14.40
2022-07-30T04:58:13.167Z,14.80
2022-07-30T05:00:41.595Z,14.50
2022-07-30T05:03:13.527Z,14.50
2022-07-30T05:05:43.828Z,14.50
2022-07-30T05:08:10.752Z,14.50
2022-07-30T05:10:38.040Z,15.60
2022-07-30T05:13:05.137Z,15.00
2022-07-30T05:15:35.973Z,14.50
2022-07-30T05:18:06.143Z,14.60
2022-07-30T05:20:35.906Z,14.60
2022-07-30T05:23:08.738Z,16.50
2022-07-30T05:25:36.171Z,14.90
2022-07-30T05:28:18.963Z,14.70
2022-07-30T05:30:48.691Z,15.90
2022-07-30T05:33:18.190Z,14.60
2022-07-30T05:35:45.228Z,14.70
2022-07-30T05:38:13.407Z,14.80
2022-07-30T05:41:30.718Z,15.60
2022-07-30T05:44:23.598Z,15.30
2022-07-30T05:46:52.071Z,15.50
2022-07-30T05:49:19.447Z,15.70
2022-07-30T05:51:46.575Z,15.80
2022-07-30T05:54:13.816Z,15.90
2022-07-30T05:57:01.516Z,16.10
2022-07-30T05:59:32.463Z,16.10
2022-07-30T06:02:08.641Z,16.20
2022-07-30T06:04:55.040Z,18.60
2022-07-30T06:07:24.130Z,16.50
2022-07-30T06:09:54.253Z,16.60
2022-07-30T06:12:21.869Z,16.80
2022-07-30T06:14:49.510Z,16.90
2022-07-30T06:17:24.495Z,17.00
2022-07-30T06:20:21.748Z,17.10
2022-07-30T06:23:06.518Z,17.30
2022-07-30T06:25:49.695Z,17.40
2022-07-30T06:31:11.907Z,17.70
2022-07-30T06:33:39.592Z,17.90
2022-07-30T06:36:07.452Z,18.10
2022-07-30T06:38:47.807Z,18.20
2022-07-30T06:41:20.762Z,18.40
2022-07-30T06:43:53.541Z,18.60
2022-07-30T06:46:46.838Z,18.80
2022-07-30T06:49:15.049Z,18.90
2022-07-30T06:51:42.723Z,19.10
2022-07-30T06:54:09.890Z,19.30
2022-07-30T06:56:37.324Z,19.50
2022-07-30T06:59:06.679Z,19.60
2022-07-30T07:01:54.294Z,19.90
2022-07-30T07:04:21.735Z,20.10
2022-07-30T07:06:48.686Z,20.20
2022-07-30T07:09:24.532Z,20.50
2022-07-30T07:12:09.425Z,20.70
2022-07-30T07:14:36.854Z,20.80
2022-07-30T07:17:03.898Z,21.00
2022-07-30T07:20:00.259Z,21.10
2022-07-30T07:22:31.287Z,21.30
2022-07-30T07:24:58.273Z,21.40
2022-07-30T07:27:28.859Z,21.60
2022-07-30T07:30:01.391Z,21.70
2022-07-30T07:32:35.140Z,21.80
2022-07-30T07:35:02.687Z,22.00
2022-07-30T07:37:30.207Z,22.10
2022-07-30T07:39:57.210Z,22.20
2022-07-30T07:42:24.372Z,22.30
2022-07-30T07:44:52.801Z,22.40
2022-07-30T07:47:20.185Z,22.60
2022-07-30T07:50:02.662Z,22.60
2022-07-30T07:52:30.276Z,22.70
2022-07-30T07:54:57.172Z,22.90
2022-07-30T07:57:24.320Z,23.00
2022-07-30T07:59:54.360Z,23.10
2022-07-30T08:02:26.974Z,23.30
2022-07-30T08:05:06.322Z,23.40
2022-07-30T08:07:45.602Z,23.50
2022-07-30T08:10:16.224Z,23.60
2022-07-30T08:13:48.480Z,23.80
2022-07-30T08:16:14.926Z,23.90
2022-07-30T08:19:16.686Z,24.00
2022-07-30T08:21:50.667Z,24.10
2022-07-30T08:24:18.361Z,24.20
2022-07-30T08:26:45.264Z,24.30
2022-07-30T08:29:16.838Z,24.50
2022-07-30T08:31:44.843Z,24.50
2022-07-30T08:34:13.632Z,24.60
2022-07-30T08:36:41.180Z,24.70
2022-07-30T08:39:08.722Z,24.80
2022-07-30T08:41:36.718Z,24.90
2022-07-30T08:44:06.929Z,25.00
2022-07-30T08:46:41.307Z,25.10
2022-07-30T08:49:25.509Z,25.30
2022-07-30T08:51:52.415Z,25.40
2022-07-30T08:54:37.248Z,25.60
2022-07-30T08:57:04.590Z,25.60
2022-07-30T08:59:59.866Z,25.60
2022-07-30T09:02:27.471Z,25.70
2022-07-30T09:05:03.923Z,25.80
2022-07-30T09:07:33.585Z,25.90
2022-07-30T09:10:01.841Z,26.00
2022-07-30T09:12:45.127Z,26.10
2022-07-30T09:15:20.379Z,26.20
2022-07-30T09:18:00.750Z,26.20
2022-07-30T09:20:31.537Z,26.40
2022-07-30T09:23:03.512Z,26.50
2022-07-30T09:25:41.072Z,26.60
2022-07-30T09:28:31.421Z,26.80
2022-07-30T09:31:13.679Z,26.90
2022-07-30T09:33:59.453Z,27.00
2022-07-30T09:37:16.943Z,27.10
2022-07-30T09:40:22.637Z,27.20
2022-07-30T09:43:27.202Z,27.20
2022-07-30T09:46:01.764Z,27.20
2022-07-30T09:48:28.864Z,27.30
2022-07-30T09:50:57.494Z,27.40
2022-07-30T09:53:24.811Z,27.40
2022-07-30T09:55:52.432Z,27.40
2022-07-30T09:58:26.995Z,27.40
2022-07-30T10:00:59.769Z,27.50
2022-07-30T10:03:47.774Z,27.50
2022-07-30T10:06:38.293Z,27.60
2022-07-30T10:09:47.963Z,27.70
2022-07-30T10:12:16.872Z,27.70
2022-07-30T10:14:48.321Z,27.70
2022-07-30T10:17:22.207Z,27.70
2022-07-30T10:20:12.369Z,27.70
2022-07-30T10:23:08.216Z,27.70
2022-07-30T10:25:36.453Z,27.80
2022-07-30T10:28:12.952Z,27.90
2022-07-30T10:30:41.361Z,27.90
2022-07-30T10:33:13.400Z,28.00
2022-07-30T10:36:02.886Z,28.20
2022-07-30T10:38:33.274Z,28.40
2022-07-30T10:41:43.034Z,28.40
2022-07-30T10:44:40.894Z,28.60
2022-07-30T10:47:14.592Z,27.80
2022-07-30T10:49:43.174Z,29.00
2022-07-30T10:52:10.795Z,29.00
2022-07-30T10:54:41.887Z,29.00
2022-07-30T10:57:23.017Z,29.00
2022-07-30T11:00:04.188Z,28.90
2022-07-30T11:02:34.935Z,28.80
2022-07-30T11:05:18.624Z,28.60
2022-07-30T11:07:54.389Z,28.40
2022-07-30T11:10:36.786Z,28.20
2022-07-30T11:13:05.166Z,28.20
2022-07-30T11:15:55.961Z,28.20
2022-07-30T11:18:24.995Z,28.40
2022-07-30T11:21:13.984Z,28.70
2022-07-30T11:23:40.995Z,28.90
2022-07-30T11:26:07.897Z,28.90
2022-07-30T11:28:43.874Z,28.80
2022-07-30T11:31:55.114Z,28.80
2022-07-30T11:34:25.612Z,26.90
2022-07-30T11:37:18.890Z,28.50
2022-07-30T11:39:55.665Z,28.20
2022-07-30T11:42:36.487Z,28.00
2022-07-30T11:45:18.652Z,27.80
2022-07-30T11:47:46.835Z,27.60
2022-07-30T11:50:24.381Z,27.40
2022-07-30T11:53:00.965Z,27.30
2022-07-30T11:55:32.780Z,27.40
2022-07-30T11:58:00.962Z,27.60
2022-07-30T12:00:47.880Z,28.00
2022-07-30T12:03:16.305Z,28.40
2022-07-30T12:05:43.598Z,28.60
2022-07-30T12:08:33.427Z,28.70
2022-07-30T12:10:59.961Z,28.60
2022-07-30T12:13:45.453Z,28.70
2022-07-30T12:16:16.517Z,28.90
2022-07-30T12:18:44.113Z,29.20
2022-07-30T12:21:16.303Z,29.40
2022-07-30T12:24:04.335Z,29.50
2022-07-30T12:26:32.695Z,29.30
2022-07-30T12:29:01.255Z,29.10
2022-07-30T12:31:28.201Z,29.10
2022-07-30T12:33:58.969Z,29.00
2022-07-30T12:36:33.849Z,29.00
2022-07-30T12:39:02.470Z,29.10
2022-07-30T12:41:49.260Z,29.30
2022-07-30T12:44:35.887Z,29.60
2022-07-30T12:47:04.451Z,29.60
2022-07-30T12:49:39.553Z,29.50
2022-07-30T12:52:28.465Z,29.40
2022-07-30T12:55:03.839Z,29.20
2022-07-30T12:58:07.176Z,29.00
2022-07-30T13:00:44.444Z,28.80
2022-07-30T13:03:26.082Z,28.80
2022-07-30T13:05:55.376Z,29.10
2022-07-30T13:08:44.723Z,29.40
2022-07-30T13:11:11.608Z,29.80
2022-07-30T13:13:38.425Z,31.80
2022-07-30T13:16:06.143Z,30.40
2022-07-30T13:18:33.826Z,30.60
2022-07-30T13:21:00.981Z,30.70
2022-07-30T13:23:28.353Z,30.60
2022-07-30T13:25:55.221Z,30.40
2022-07-30T13:28:22.222Z,30.00
2022-07-30T13:30:49.294Z,29.70
2022-07-30T13:33:16.479Z,29.40
2022-07-30T13:35:43.950Z,29.30
2022-07-30T13:38:13.472Z,29.20
2022-07-30T13:40:40.584Z,29.40
2022-07-30T13:43:07.787Z,29.60
2022-07-30T13:45:35.359Z,30.10
2022-07-30T13:48:02.426Z,30.50
2022-07-30T13:50:29.306Z,30.80
2022-07-30T13:53:01.796Z,31.10
2022-07-30T13:55:29.660Z,31.30
2022-07-30T13:57:56.706Z,31.40
2022-07-30T14:00:23.656Z,31.30
2022-07-30T14:02:51.397Z,31.50
2022-07-30T14:05:18.300Z,31.60
2022-07-30T14:07:45.125Z,31.70
2022-07-30T14:10:12.065Z,31.50
2022-07-30T14:12:40.051Z,31.30
2022-07-30T14:15:07.577Z,31.00
2022-07-30T14:17:34.489Z,30.80
2022-07-30T14:20:30.706Z,30.90
2022-07-30T14:22:57.662Z,31.20
2022-07-30T14:25:24.806Z,31.40
2022-07-30T14:27:51.651Z,31.40
2022-07-30T14:30:18.573Z,31.30
2022-07-30T14:32:45.465Z,31.10
2022-07-30T14:35:12.928Z,31.00
2022-07-30T14:37:40.434Z,30.70
2022-07-30T14:40:08.438Z,30.50
2022-07-30T14:42:36.405Z,30.20
2022-07-30T14:45:07.861Z,30.00
2022-07-30T14:47:34.728Z,29.60
2022-07-30T14:50:01.618Z,29.50
2022-07-30T14:52:28.493Z,29.20
2022-07-30T14:54:55.392Z,29.10
2022-07-30T14:57:22.265Z,29.00
2022-07-30T14:59:49.133Z,29.00
2022-07-30T15:02:16.007Z,28.90
2022-07-30T15:04:42.865Z,29.00
2022-07-30T15:07:09.696Z,29.20
2022-07-30T15:09:36.577Z,29.80
2022-07-30T15:12:08.929Z,30.40
2022-07-30T15:14:40.178Z,30.90
2022-07-30T15:17:07.946Z,31.30
2022-07-30T15:19:34.815Z,31.30
2022-07-30T15:22:02.691Z,31.00
2022-07-30T15:24:30.159Z,30.60
2022-07-30T15:26:57.062Z,30.20
2022-07-30T15:29:24.404Z,29.80
2022-07-30T15:31:51.585Z,29.50
2022-07-30T15:34:18.746Z,29.50
2022-07-30T15:36:45.641Z,29.80
2022-07-30T15:39:13.477Z,30.50
2022-07-30T15:41:42.458Z,31.10
2022-07-30T15:44:09.323Z,31.70
2022-07-30T15:46:36.257Z,32.20
2022-07-30T15:49:03.140Z,32.50
2022-07-30T15:51:31.592Z,32.70
2022-07-30T15:53:58.507Z,33.20
2022-07-30T15:56:26.559Z,33.50
2022-07-30T15:58:53.423Z,33.60
2022-07-30T16:01:20.388Z,33.60
2022-07-30T16:03:47.318Z,33.60
2022-07-30T16:06:14.690Z,33.70
2022-07-30T16:08:41.610Z,33.40
2022-07-30T16:11:10.885Z,32.80
2022-07-30T16:13:37.955Z,32.10
2022-07-30T16:16:05.175Z,31.50
2022-07-30T16:18:31.984Z,30.90
2022-07-30T16:21:01.195Z,30.50
2022-07-30T16:23:28.369Z,30.10
2022-07-30T16:26:03.373Z,29.80
2022-07-30T16:28:30.203Z,29.30
2022-07-30T16:30:57.051Z,28.90
2022-07-30T16:33:23.872Z,28.70
2022-07-30T16:35:51.209Z,28.30
2022-07-30T16:38:19.741Z,27.80
2022-07-30T16:40:46.610Z,27.50
2022-07-30T16:43:15.585Z,27.90
2022-07-30T16:45:43.835Z,26.80
2022-07-30T16:48:11.502Z,26.50
2022-07-30T16:50:40.642Z,26.70
2022-07-30T16:53:14.171Z,27.30
2022-07-30T16:55:45.252Z,28.10
2022-07-30T16:58:12.163Z,28.60
2022-07-30T17:00:39.470Z,28.60
2022-07-30T17:03:06.517Z,28.60
2022-07-30T17:05:33.393Z,28.70
2022-07-30T17:08:00.404Z,29.00
2022-07-30T17:10:27.340Z,29.50
2022-07-30T17:12:57.124Z,30.00
2022-07-30T17:15:32.208Z,30.40
2022-07-30T17:18:00.387Z,30.60
2022-07-30T17:20:27.636Z,30.30
2022-07-30T17:22:56.150Z,29.90
2022-07-30T17:25:25.641Z,29.50
2022-07-30T17:27:52.734Z,28.90
2022-07-30T17:30:20.515Z,28.40
2022-07-30T17:32:47.435Z,28.00
2022-07-30T17:35:14.281Z,27.60
2022-07-30T17:37:41.253Z,27.30
2022-07-30T17:40:29.254Z,26.90
2022-07-30T17:43:02.966Z,26.60
2022-07-30T17:45:34.383Z,26.10
2022-07-30T17:48:01.824Z,25.80
2022-07-30T17:50:29.729Z,25.50
2022-07-30T17:52:56.680Z,25.20
2022-07-30T17:55:23.846Z,25.00
2022-07-30T17:57:50.918Z,24.80
2022-07-30T18:00:17.960Z,24.50
2022-07-30T18:02:44.906Z,24.30
2022-07-30T18:05:14.548Z,24.10
2022-07-30T18:07:42.131Z,24.60
2022-07-30T18:10:09.490Z,23.70
2022-07-30T18:12:36.452Z,23.60
2022-07-30T18:15:06.470Z,23.40
2022-07-30T18:17:33.485Z,23.20
2022-07-30T18:20:00.438Z,23.00
2022-07-30T18:22:29.812Z,22.90
2022-07-30T18:25:00.682Z,22.70
2022-07-30T18:27:37.094Z,22.60
2022-07-30T18:30:04.450Z,22.40
2022-07-30T18:32:31.348Z,22.30
2022-07-30T18:34:58.265Z,22.10
2022-07-30T18:37:25.578Z,22.00
2022-07-30T18:40:08.898Z,21.90
2022-07-30T18:42:35.858Z,21.70
2022-07-30T18:45:02.796Z,21.60
2022-07-30T18:47:29.685Z,21.50
2022-07-30T18:49:56.728Z,21.40
2022-07-30T18:52:23.665Z,21.40
2022-07-30T18:54:51.101Z,21.20
2022-07-30T18:57:18.101Z,21.10
2022-07-30T18:59:45.027Z,21.00
2022-07-30T19:02:11.916Z,20.90
2022-07-30T19:04:38.990Z,20.80
2022-07-30T19:07:07.251Z,20.70
2022-07-30T19:09:34.592Z,20.60
2022-07-30T19:12:01.776Z,20.50
2022-07-30T19:14:28.956Z,20.40
2022-07-30T19:16:59.455Z,20.40
2022-07-30T19:19:28.162Z,20.30
2022-07-30T19:21:55.201Z,20.30
2022-07-30T19:24:22.240Z,20.20
2022-07-30T19:26:49.257Z,20.10
2022-07-30T19:29:16.268Z,20.00
2022-07-30T19:31:43.219Z,20.00
2022-07-30T19:34:11.094Z,19.90
2022-07-30T19:36:38.252Z,19.90
2022-07-30T19:39:07.201Z,19.80
2022-07-30T19:41:40.663Z,19.70
2022-07-30T19:44:09.127Z,19.60
2022-07-30T19:46:36.546Z,19.60
2022-07-30T19:49:03.819Z,19.50
2022-07-30T19:52:09.844Z,19.50
2022-07-30T19:54:20.670Z,19.40
2022-07-30T19:56:48.695Z,19.40
2022-07-30T19:59:15.706Z,19.30
2022-07-30T20:01:43.201Z,19.20
2022-07-30T20:04:11.263Z,19.20
2022-07-30T20:06:40.014Z,19.20
2022-07-30T20:09:15.010Z,19.00
2022-07-30T20:11:43.361Z,19.00
2022-07-30T20:14:10.399Z,18.90
2022-07-30T20:16:37.515Z,18.90
2022-07-30T20:19:04.804Z,18.90
2022-07-30T20:21:55.982Z,19.90
2022-07-30T20:24:20.498Z,18.80
2022-07-30T20:26:47.952Z,19.30
2022-07-30T20:29:19.246Z,18.70
2022-07-30T20:31:46.653Z,18.60
2022-07-30T20:34:18.178Z,18.60
2022-07-30T20:36:45.189Z,18.50
2022-07-30T20:39:18.207Z,18.50
2022-07-30T20:41:45.444Z,18.50
2022-07-30T20:44:23.094Z,18.40
2022-07-30T20:46:50.791Z,18.40
2022-07-30T20:49:24.184Z,18.40
2022-07-30T20:52:01.252Z,18.50
2022-07-30T20:54:30.131Z,18.50
2022-07-30T20:56:57.559Z,18.60
2022-07-30T20:59:25.022Z,18.50
2022-07-30T21:01:51.868Z,18.50
2022-07-30T21:04:23.950Z,18.60
2022-07-30T21:06:52.914Z,18.60
2022-07-30T21:09:20.100Z,18.60
2022-07-30T21:11:50.407Z,18.60
2022-07-30T21:14:17.835Z,18.70
2022-07-30T21:16:44.623Z,18.70
2022-07-30T21:19:14.453Z,18.70
2022-07-30T21:21:48.333Z,18.90
2022-07-30T21:24:18.767Z,19.00
2022-07-30T21:26:48.617Z,20.10
2022-07-30T21:29:15.974Z,18.60
2022-07-30T21:32:01.704Z,18.60
2022-07-30T21:34:33.615Z,18.90
2022-07-30T21:37:02.931Z,18.80
2022-07-30T21:39:30.189Z,18.70
2022-07-30T21:41:57.328Z,18.60
2022-07-30T21:44:24.386Z,18.90
2022-07-30T21:46:52.370Z,19.20
2022-07-30T21:49:22.688Z,18.40
2022-07-30T21:51:50.892Z,18.40
2022-07-30T21:54:26.507Z,18.40
2022-07-30T21:56:56.457Z,18.40
2022-07-30T21:59:25.518Z,18.30
2022-07-30T22:01:55.344Z,18.30
2022-07-30T22:04:22.395Z,18.20
2022-07-30T22:06:49.269Z,18.20
2022-07-30T22:09:19.508Z,18.20
2022-07-30T22:12:06.538Z,18.10
2022-07-30T22:14:37.638Z,18.10
2022-07-30T22:17:04.623Z,18.10
2022-07-30T22:19:32.326Z,18.00
2022-07-30T22:22:05.225Z,18.00
2022-07-30T22:24:46.034Z,18.00
2022-07-30T22:27:14.920Z,18.00
2022-07-30T22:29:43.118Z,18.00
2022-07-30T22:32:11.368Z,17.80
2022-07-30T22:34:38.344Z,17.80
2022-07-30T22:37:13.231Z,17.70
2022-07-30T22:39:51.006Z,18.70
2022-07-30T22:42:20.184Z,17.80
2022-07-30T22:44:48.262Z,17.60
2022-07-30T22:47:21.270Z,17.60
2022-07-30T22:50:05.591Z,17.60
2022-07-30T22:52:38.896Z,17.50
2022-07-30T22:55:09.173Z,17.50
2022-07-30T22:57:38.088Z,17.50
2022-07-30T23:00:11.340Z,17.90
2022-07-30T23:02:39.225Z,17.40
2022-07-30T23:05:07.041Z,17.40
2022-07-30T23:07:38.947Z,17.30
2022-07-30T23:12:34.042Z,17.30
2022-07-30T23:12:55.261Z,17.30
2022-07-30T23:15:22.981Z,19.40
2022-07-30T23:17:49.854Z,17.90
2022-07-30T23:20:18.299Z,17.50
2022-07-30T23:22:45.180Z,17.70
2022-07-30T23:25:12.279Z,17.70
2022-07-30T23:27:39.376Z,17.10
2022-07-30T23:30:07.783Z,17.10
2022-07-30T23:32:34.728Z,17.00
2022-07-30T23:35:01.602Z,17.10
2022-07-30T23:37:28.518Z,17.40
2022-07-30T23:40:06.731Z,18.30
2022-07-30T23:42:33.666Z,17.00
2022-07-30T23:45:00.551Z,17.00
2022-07-30T23:47:52.168Z,18.40
2022-07-30T23:50:14.349Z,18.40
2022-07-30T23:52:42.328Z,16.90
2022-07-30T23:55:09.624Z,16.90
2022-07-30T23:57:37.533Z,16.90
